Current Weather

San Fernando

San Fernando, Argentina (SADF)

Report from: Sunday, July 14, 2024 12:00 AM UTC
Current time: Sunday, July 14, 2024 12:32 AM UTC

Nearby weather – Weather history – Daily summaries
Weather forecast

Temperature3.0°C (37.4°F)
Dew point1.0°C (33.8°F)
Winds Calm
Visibility5.6 mi. (9 km)
Altimeter30.45 in.Hg (1031 mB)
Relative humidity87 %
Density altitude-1,960 ft. (-597 m)
Flight conditions Visual Meteorological Conditions
Raw dataSADF 140000Z 00000KT 9000 NSC 03/01 Q1031
An error has occurred. This application may no longer respond until reloaded. Reload 🗙